Time;durP1;ratioP1;P1;durP2;ratioP2;P2;SDS_P1;SDS_P2;PMS_P1;PMS_P2;Temp;Humidity;BMP_temperature;BMP_pressure;BME280_temperature;BME280_humidity;BME280_pressure;Samples;Min_cycle;Max_cycle;Signal;HPM_P1;HPM_P2
2022/11/02 00:01:19;;;;;;;8.25;1.70;;;13.60;99.90;;;;;;5032456;28;20447;-66
2022/11/02 00:03:44;;;;;;;7.60;1.73;;;13.50;99.90;;;;;;5009715;28;20041;-67
2022/11/02 00:06:10;;;;;;;9.48;1.70;;;13.50;99.90;;;;;;5030315;28;20501;-67
2022/11/02 00:08:36;;;;;;;6.78;1.80;;;13.40;99.90;;;;;;5032279;28;20063;-67
2022/11/02 00:11:01;;;;;;;6.10;1.30;;;13.40;99.90;;;;;;5031201;28;20077;-67
2022/11/02 00:13:27;;;;;;;5.88;1.60;;;13.30;99.90;;;;;;5030820;28;20038;-67
2022/11/02 00:15:52;;;;;;;8.68;1.65;;;13.30;99.90;;;;;;5027618;28;20037;-67
2022/11/02 00:18:18;;;;;;;8.73;1.73;;;13.30;99.90;;;;;;5030458;28;20372;-67
2022/11/02 00:20:44;;;;;;;7.78;1.40;;;13.20;99.90;;;;;;5032278;28;20060;-67
2022/11/02 00:23:12;;;;;;;9.40;1.83;;;13.20;99.90;;;;;;5030909;28;20033;-66
2022/11/02 00:25:44;;;;;;;7.65;1.92;;;13.20;99.90;;;;;;5031034;28;20056;-67
2022/11/02 00:28:09;;;;;;;7.50;1.75;;;13.10;99.90;;;;;;5030457;28;20026;-67
2022/11/02 00:30:36;;;;;;;7.95;1.80;;;13.10;99.90;;;;;;5028463;28;20122;-67
2022/11/02 00:33:02;;;;;;;6.82;1.48;;;13.10;99.90;;;;;;5030003;28;20612;-67
2022/11/02 00:35:28;;;;;;;6.65;1.70;;;13.10;99.90;;;;;;5030754;28;20037;-67
2022/11/02 00:37:54;;;;;;;6.85;1.38;;;13.10;99.90;;;;;;5030217;28;20120;-67
2022/11/02 00:40:19;;;;;;;8.13;1.77;;;13.00;99.90;;;;;;5030106;28;20128;-67
2022/11/02 00:42:45;;;;;;;11.38;2.08;;;13.00;99.90;;;;;;5030366;28;20037;-67
2022/11/02 00:45:10;;;;;;;11.18;2.00;;;13.00;99.90;;;;;;5029631;28;20044;-67
2022/11/02 00:47:36;;;;;;;8.73;2.10;;;13.00;99.90;;;;;;5038507;28;20048;-67
2022/11/02 00:50:02;;;;;;;10.35;2.45;;;13.00;99.90;;;;;;5031012;28;20115;-67
2022/11/02 00:52:28;;;;;;;12.57;2.35;;;13.00;99.90;;;;;;5031425;28;20041;-67
2022/11/02 00:54:53;;;;;;;9.23;2.03;;;13.00;99.90;;;;;;5030711;28;20033;-67
2022/11/02 00:57:19;;;;;;;11.25;2.20;;;13.00;99.90;;;;;;5030383;28;20045;-67
2022/11/02 00:59:44;;;;;;;10.55;2.65;;;12.90;99.90;;;;;;5030655;28;20034;-67
2022/11/02 01:02:10;;;;;;;13.90;2.40;;;12.90;99.90;;;;;;5044332;28;20088;-66
2022/11/02 01:04:36;;;;;;;14.00;2.42;;;12.90;99.90;;;;;;5030540;28;20041;-67
2022/11/02 01:07:02;;;;;;;11.00;2.42;;;12.90;99.90;;;;;;5030082;28;20041;-67
2022/11/02 01:09:28;;;;;;;8.95;2.00;;;12.90;99.90;;;;;;5030375;28;20091;-67
2022/11/02 01:11:53;;;;;;;13.10;2.20;;;12.90;99.90;;;;;;5029323;28;20522;-66
2022/11/02 01:14:20;;;;;;;14.15;2.30;;;12.90;99.90;;;;;;5023364;28;20115;-67
2022/11/02 01:16:46;;;;;;;12.45;2.67;;;12.80;99.90;;;;;;5030975;28;20060;-67
2022/11/02 01:19:11;;;;;;;9.85;2.17;;;12.90;99.90;;;;;;5030270;28;20499;-66
2022/11/02 01:21:37;;;;;;;11.52;1.98;;;12.80;99.90;;;;;;5028707;28;20044;-66
2022/11/02 01:24:03;;;;;;;10.95;2.55;;;12.80;99.90;;;;;;5029754;28;20041;-66
2022/11/02 01:26:29;;;;;;;10.60;2.17;;;12.80;99.90;;;;;;5031840;28;20040;-67
2022/11/02 01:28:54;;;;;;;12.80;2.50;;;12.80;99.90;;;;;;5042209;28;20505;-67
2022/11/02 01:31:20;;;;;;;8.73;2.10;;;12.90;99.90;;;;;;5037955;28;20044;-67
2022/11/02 01:33:47;;;;;;;10.52;2.38;;;12.90;99.90;;;;;;5031335;28;20454;-67
2022/11/02 01:36:14;;;;;;;15.02;3.15;;;12.90;99.90;;;;;;5031112;28;20549;-66
2022/11/02 01:38:40;;;;;;;9.05;2.38;;;12.90;99.90;;;;;;5028961;28;20037;-67
2022/11/02 01:41:06;;;;;;;9.13;2.05;;;12.90;99.90;;;;;;5037557;28;20037;-67
2022/11/02 01:43:34;;;;;;;12.63;1.80;;;12.90;99.90;;;;;;5033071;28;20045;-67
2022/11/02 01:46:09;;;;;;;11.65;2.25;;;12.90;99.90;;;;;;5051287;28;20137;-67
2022/11/02 01:48:59;;;;;;;10.82;2.20;;;12.90;99.90;;;;;;5019477;28;20395;-67
2022/11/02 01:51:26;;;;;;;13.55;2.20;;;13.00;99.90;;;;;;5033025;28;20037;-67
2022/11/02 01:53:54;;;;;;;11.43;2.50;;;12.90;99.90;;;;;;5034748;28;20080;-67
2022/11/02 01:56:23;;;;;;;6.38;1.70;;;12.90;99.90;;;;;;5041592;28;20048;-67
2022/11/02 01:58:55;;;;;;;12.90;2.00;;;12.90;99.90;;;;;;5033723;28;20141;-67
2022/11/02 02:01:21;;;;;;;9.73;2.22;;;12.90;99.90;;;;;;5033729;28;20033;-67
2022/11/02 02:03:49;;;;;;;10.55;2.00;;;12.90;99.90;;;;;;5034636;28;20045;-67
2022/11/02 02:06:15;;;;;;;10.45;2.50;;;13.00;99.90;;;;;;5034685;28;20034;-67
2022/11/02 02:08:44;;;;;;;12.80;2.25;;;13.00;99.90;;;;;;5040146;28;20105;-67
2022/11/02 02:11:32;;;;;;;11.60;2.47;;;13.00;99.90;;;;;;5036304;28;20048;-68
2022/11/02 02:14:00;;;;;;;9.18;1.50;;;13.00;99.90;;;;;;5034300;28;20037;-67
2022/11/02 02:17:07;;;;;;;9.57;2.20;;;13.00;99.90;;;;;;5034216;28;20033;-69
2022/11/02 02:20:05;;;;;;;7.88;1.90;;;13.10;99.90;;;;;;5032751;28;20033;-68
2022/11/02 02:23:07;;;;;;;5.03;1.85;;;13.20;99.90;;;;;;5035826;28;20025;-69
2022/11/02 02:25:57;;;;;;;9.65;2.15;;;13.20;99.90;;;;;;5024888;28;20041;-69
2022/11/02 02:28:45;;;;;;;13.02;2.25;;;13.20;99.90;;;;;;5032945;28;20037;-69
2022/11/02 02:31:23;;;;;;;9.77;2.17;;;13.30;99.90;;;;;;5033768;28;20041;-69
2022/11/02 02:34:06;;;;;;;6.55;2.22;;;13.30;99.90;;;;;;5030379;28;20049;-68
2022/11/02 02:36:38;;;;;;;5.80;1.77;;;13.30;99.90;;;;;;5033098;28;20041;-68
2022/11/02 02:39:19;;;;;;;9.63;1.27;;;13.20;99.90;;;;;;5028788;28;20521;-69
2022/11/02 02:41:53;;;;;;;6.60;1.23;;;13.00;99.90;;;;;;5032976;28;20041;-69
2022/11/02 02:44:26;;;;;;;7.70;1.92;;;12.80;99.90;;;;;;5033898;28;20057;-68
2022/11/02 02:46:59;;;;;;;7.53;2.03;;;12.60;99.90;;;;;;5029004;28;20092;-68
2022/11/02 02:49:31;;;;;;;6.97;1.80;;;12.60;99.90;;;;;;5012324;28;20057;-68
2022/11/02 02:51:58;;;;;;;10.00;1.92;;;12.60;99.90;;;;;;5014534;28;20033;-68
2022/11/02 02:54:35;;;;;;;9.25;2.00;;;12.50;99.90;;;;;;5014982;28;20045;-68
2022/11/02 02:57:07;;;;;;;10.00;1.90;;;12.50;99.90;;;;;;5017375;28;20550;-68
2022/11/02 02:59:40;;;;;;;8.77;2.00;;;12.50;99.90;;;;;;5014257;28;20037;-68
2022/11/02 03:02:12;;;;;;;10.43;2.08;;;12.50;99.90;;;;;;5014362;28;20041;-68
2022/11/02 03:04:38;;;;;;;8.85;1.98;;;12.50;99.90;;;;;;5018888;28;20088;-67
2022/11/02 03:07:04;;;;;;;8.50;1.65;;;12.50;99.90;;;;;;5009302;28;20041;-67
2022/11/02 03:09:39;;;;;;;4.95;1.30;;;12.50;99.90;;;;;;5012739;28;20047;-67
2022/11/02 03:12:42;;;;;;;5.70;1.13;;;12.50;99.90;;;;;;5012864;28;20450;-68
2022/11/02 03:15:32;;;;;;;4.57;0.98;;;12.50;99.90;;;;;;5018625;28;20073;-67
2022/11/02 03:18:13;;;;;;;2.67;0.82;;;12.40;99.90;;;;;;5015377;28;20416;-68
2022/11/02 03:20:39;;;;;;;;;;;12.40;99.90;;;;;;5005203;28;20403;-67
2022/11/02 03:23:11;;;;;;;3.50;0.60;;;12.30;99.90;;;;;;5016979;28;19950;-67
2022/11/02 03:25:49;;;;;;;6.43;0.90;;;12.20;99.90;;;;;;5009958;28;20426;-68
2022/11/02 03:28:32;;;;;;;5.63;0.85;;;12.20;99.90;;;;;;5015909;28;20176;-68
2022/11/02 03:31:15;;;;;;;5.85;0.73;;;12.10;99.90;;;;;;5023022;28;20104;-68
2022/11/02 03:34:02;;;;;;;4.20;0.88;;;12.00;99.90;;;;;;5007475;28;20113;-68
2022/11/02 03:36:43;;;;;;;5.63;1.13;;;12.00;99.90;;;;;;4993952;28;20061;-68
2022/11/02 03:39:11;;;;;;;5.35;0.80;;;12.00;99.90;;;;;;5021595;28;20041;-68
2022/11/02 03:41:40;;;;;;;4.95;1.25;;;12.00;99.90;;;;;;5032666;28;20069;-69
2022/11/02 03:44:10;;;;;;;5.82;1.05;;;11.90;99.90;;;;;;5014682;28;20042;-68
2022/11/02 03:46:39;;;;;;;3.90;1.10;;;11.90;99.90;;;;;;5022954;28;20418;-68
2022/11/02 03:49:07;;;;;;;6.20;1.35;;;11.90;99.90;;;;;;5031609;28;20479;-68
2022/11/02 03:51:36;;;;;;;5.25;0.90;;;11.90;99.90;;;;;;5025457;28;20065;-69
2022/11/02 03:54:11;;;;;;;5.47;1.30;;;11.90;99.90;;;;;;5032090;28;20056;-69
2022/11/02 03:56:50;;;;;;;4.65;0.77;;;11.80;99.90;;;;;;5024756;28;20043;-68
2022/11/02 03:59:15;;;;;;;3.78;0.90;;;11.80;99.90;;;;;;5030871;28;20041;-68
2022/11/02 04:01:43;;;;;;;3.70;0.90;;;11.80;99.90;;;;;;5032587;28;20049;-69
2022/11/02 04:04:10;;;;;;;5.15;0.95;;;11.80;99.90;;;;;;5030090;28;20059;-69
2022/11/02 04:06:36;;;;;;;7.00;1.30;;;11.80;99.90;;;;;;5031984;28;20037;-69
2022/11/02 04:09:03;;;;;;;3.55;0.98;;;11.80;99.90;;;;;;5028793;28;20049;-69
2022/11/02 04:19:43;;;;;;;3.63;1.10;;;11.70;99.90;;;;;;5023533;28;20061;-69
2022/11/02 04:27:37;;;;;;;5.85;1.40;;;11.70;99.90;;;;;;5031264;28;20045;-69
2022/11/02 04:30:03;;;;;;;8.20;1.52;;;11.70;99.90;;;;;;5031801;28;20384;-69
2022/11/02 04:35:13;;;;;;;8.05;1.50;;;11.70;99.90;;;;;;5030839;28;20048;-69
2022/11/02 04:40:24;;;;;;;8.32;1.58;;;11.70;99.90;;;;;;5031579;28;20041;-69
2022/11/02 04:42:50;;;;;;;5.20;1.25;;;11.70;99.90;;;;;;5034900;28;20059;-69
2022/11/02 04:45:16;;;;;;;9.80;1.38;;;11.80;99.90;;;;;;5051868;28;20048;-69
2022/11/02 04:47:41;;;;;;;8.00;1.08;;;11.80;99.90;;;;;;5044062;28;20037;-69
2022/11/02 04:50:07;;;;;;;4.82;1.40;;;11.90;99.90;;;;;;5031664;28;20118;-69
2022/11/02 04:52:33;;;;;;;5.65;1.23;;;11.90;99.90;;;;;;5030219;28;20446;-69
2022/11/02 04:54:58;;;;;;;8.23;1.65;;;11.90;99.90;;;;;;5031705;28;20041;-69
2022/11/02 04:57:24;;;;;;;4.88;1.55;;;11.90;99.90;;;;;;5030047;28;20034;-69
2022/11/02 04:59:50;;;;;;;7.80;1.63;;;12.00;99.90;;;;;;5034986;28;20029;-69
2022/11/02 05:02:15;;;;;;;8.25;1.80;;;11.90;99.90;;;;;;5032485;28;20038;-69
2022/11/02 05:04:41;;;;;;;14.18;2.22;;;11.90;99.90;;;;;;5027121;28;20033;-69
2022/11/02 05:07:07;;;;;;;6.28;1.65;;;11.90;99.90;;;;;;5030539;28;20069;-69
2022/11/02 05:09:33;;;;;;;9.43;1.52;;;11.90;99.90;;;;;;5023837;28;20053;-69
2022/11/02 05:12:00;;;;;;;8.95;1.80;;;11.90;99.90;;;;;;5011660;28;20038;-69
2022/11/02 05:14:26;;;;;;;7.40;1.73;;;12.00;99.90;;;;;;5011193;28;20073;-69
2022/11/02 05:16:51;;;;;;;9.88;1.42;;;11.90;99.90;;;;;;5031082;28;20067;-69
2022/11/02 05:19:17;;;;;;;5.88;1.20;;;11.90;99.90;;;;;;5032533;28;20092;-69
2022/11/02 05:21:44;;;;;;;4.80;1.00;;;11.80;99.90;;;;;;5031657;28;20041;-69
2022/11/02 05:24:09;;;;;;;6.18;1.55;;;11.90;99.90;;;;;;5034786;28;20518;-69
2022/11/02 05:26:35;;;;;;;9.60;1.90;;;11.90;99.90;;;;;;5034146;28;20132;-69
2022/11/02 05:29:01;;;;;;;11.02;1.73;;;12.00;99.90;;;;;;5034743;28;20047;-69
2022/11/02 05:31:27;;;;;;;8.85;1.80;;;12.00;99.90;;;;;;5034015;28;20036;-69
2022/11/02 05:33:52;;;;;;;7.35;1.58;;;12.00;99.90;;;;;;5038508;28;20048;-69
2022/11/02 05:36:18;;;;;;;9.57;2.05;;;11.90;99.90;;;;;;5055095;28;20045;-69
2022/11/02 05:38:44;;;;;;;11.38;1.95;;;12.00;99.90;;;;;;5054831;28;20041;-68
2022/11/02 05:41:09;;;;;;;6.55;1.40;;;12.00;99.90;;;;;;5054478;28;20565;-69
2022/11/02 05:43:35;;;;;;;7.32;1.83;;;12.00;99.90;;;;;;5025332;28;20128;-67
2022/11/02 05:46:02;;;;;;;9.98;1.85;;;11.90;99.90;;;;;;5028370;28;20088;-68
2022/11/02 05:48:30;;;;;;;6.90;1.92;;;11.90;99.90;;;;;;5029744;28;20065;-68
2022/11/02 05:50:57;;;;;;;15.70;2.17;;;11.80;99.90;;;;;;5034384;28;20530;-68
2022/11/02 05:53:25;;;;;;;16.33;2.30;;;11.80;99.90;;;;;;5030812;28;20034;-67
2022/11/02 05:55:52;;;;;;;9.77;2.30;;;11.70;99.90;;;;;;5027412;28;20036;-67
2022/11/02 05:58:17;;;;;;;9.10;1.67;;;11.70;99.90;;;;;;5030640;28;20044;-67
2022/11/02 06:00:43;;;;;;;9.32;1.60;;;11.60;99.90;;;;;;5031809;28;20037;-67
2022/11/02 06:03:08;;;;;;;10.55;2.22;;;11.60;99.90;;;;;;5033644;28;20029;-68
2022/11/02 06:05:34;;;;;;;11.70;2.03;;;11.60;99.90;;;;;;5033075;28;20546;-69
2022/11/02 06:08:00;;;;;;;11.23;3.03;;;11.50;99.90;;;;;;5036912;28;20028;-69
2022/11/02 06:10:30;;;;;;;11.82;2.28;;;11.50;99.90;;;;;;5052754;28;20060;-68
2022/11/02 06:12:57;;;;;;;12.82;2.38;;;11.50;99.90;;;;;;5033997;28;20429;-68
2022/11/02 06:15:23;;;;;;;14.77;2.22;;;11.50;99.90;;;;;;5033765;28;20033;-68
2022/11/02 06:17:50;;;;;;;10.65;2.30;;;11.50;99.90;;;;;;5033412;28;20064;-67
2022/11/02 06:20:16;;;;;;;10.23;2.10;;;11.50;99.90;;;;;;5034321;28;20438;-67
2022/11/02 06:22:42;;;;;;;11.52;2.15;;;11.50;99.90;;;;;;5034347;28;20034;-67
2022/11/02 06:25:09;;;;;;;8.25;2.35;;;11.50;99.90;;;;;;5034608;28;20102;-67
2022/11/02 06:27:35;;;;;;;9.63;2.28;;;11.50;99.90;;;;;;5032322;28;20487;-67
2022/11/02 06:30:00;;;;;;;6.97;1.58;;;11.50;99.90;;;;;;5033919;28;20030;-67
2022/11/02 06:32:26;;;;;;;9.68;2.13;;;11.50;99.90;;;;;;5034246;28;20411;-68
2022/11/02 06:34:52;;;;;;;14.20;2.50;;;11.50;99.90;;;;;;5032162;28;20042;-68
2022/11/02 06:37:18;;;;;;;12.20;1.83;;;11.50;99.90;;;;;;5033329;28;20037;-68
2022/11/02 06:39:43;;;;;;;11.07;2.50;;;11.50;99.90;;;;;;5033821;28;20099;-67
2022/11/02 06:42:09;;;;;;;12.82;2.35;;;11.40;99.90;;;;;;5034039;28;20506;-67
2022/11/02 06:44:35;;;;;;;11.18;2.15;;;11.50;99.90;;;;;;5032900;28;20037;-67
2022/11/02 06:47:00;;;;;;;12.68;2.83;;;11.40;99.90;;;;;;5039860;28;20037;-67
2022/11/02 06:49:26;;;;;;;14.18;2.67;;;11.40;99.90;;;;;;5045217;28;20414;-67
2022/11/02 06:51:51;;;;;;;13.00;2.80;;;11.40;99.90;;;;;;5024243;28;20041;-67
2022/11/02 06:54:17;;;;;;;8.90;2.17;;;11.40;99.90;;;;;;5033793;28;20398;-67
2022/11/02 06:56:42;;;;;;;14.02;2.50;;;11.40;99.90;;;;;;5038661;28;20033;-67
2022/11/02 06:59:08;;;;;;;13.43;2.72;;;11.40;99.90;;;;;;5010617;28;20041;-67
2022/11/02 07:01:34;;;;;;;10.23;2.53;;;11.40;99.90;;;;;;5028649;28;20490;-67
2022/11/02 07:04:00;;;;;;;12.27;2.60;;;11.40;99.90;;;;;;5037648;28;20486;-67
2022/11/02 07:06:26;;;;;;;9.43;2.50;;;11.40;99.90;;;;;;5030710;28;20099;-68
2022/11/02 07:08:52;;;;;;;16.50;2.70;;;11.40;99.90;;;;;;5012945;28;20045;-67
2022/11/02 07:11:18;;;;;;;11.00;2.35;;;11.40;99.90;;;;;;5039867;28;20049;-68
2022/11/02 07:13:44;;;;;;;15.88;2.88;;;11.40;99.90;;;;;;5031761;28;20041;-68
2022/11/02 07:16:09;;;;;;;16.75;2.58;;;11.30;99.90;;;;;;5032647;28;20112;-67
2022/11/02 07:18:35;;;;;;;15.80;2.92;;;11.40;99.90;;;;;;5031407;28;20044;-67
2022/11/02 07:21:01;;;;;;;9.90;2.50;;;11.40;99.90;;;;;;5028545;28;20044;-68
2022/11/02 07:23:27;;;;;;;13.85;2.50;;;11.30;99.90;;;;;;5039966;28;20041;-67
2022/11/02 07:25:53;;;;;;;11.00;2.33;;;11.40;99.90;;;;;;5043102;28;20029;-68
2022/11/02 07:28:18;;;;;;;9.95;2.10;;;11.40;99.90;;;;;;5031685;28;20120;-67
2022/11/02 07:30:44;;;;;;;15.95;2.53;;;11.50;99.90;;;;;;5031964;28;20083;-67
2022/11/02 07:33:10;;;;;;;15.40;2.75;;;11.50;99.90;;;;;;5031162;28;20116;-68
2022/11/02 07:35:35;;;;;;;9.68;2.67;;;11.60;99.90;;;;;;5030319;28;20058;-67
2022/11/02 07:38:04;;;;;;;10.98;2.22;;;11.70;99.90;;;;;;5031185;28;20103;-67
2022/11/02 07:40:31;;;;;;;11.10;2.30;;;11.80;99.90;;;;;;5032863;28;20072;-67
2022/11/02 07:42:57;;;;;;;7.78;2.15;;;11.70;99.90;;;;;;5029081;28;20584;-67
2022/11/02 07:45:24;;;;;;;8.80;1.77;;;11.80;99.90;;;;;;5026592;28;20034;-67
2022/11/02 07:47:50;;;;;;;8.35;1.98;;;11.80;99.90;;;;;;5030329;28;20141;-67
2022/11/02 07:50:19;;;;;;;12.30;2.08;;;11.80;99.90;;;;;;5028324;28;20106;-67
2022/11/02 07:52:50;;;;;;;11.32;1.50;;;11.80;99.90;;;;;;5031097;28;20372;-67
2022/11/02 07:55:18;;;;;;;9.40;1.83;;;11.90;99.90;;;;;;5030647;28;20502;-67
2022/11/02 07:58:01;;;;;;;8.35;2.03;;;11.90;99.90;;;;;;5029729;28;20025;-67
2022/11/02 08:00:32;;;;;;;17.23;2.35;;;11.90;99.90;;;;;;5032271;28;20033;-67
2022/11/02 08:03:00;;;;;;;10.15;1.77;;;11.90;99.90;;;;;;5029147;28;20044;-67
2022/11/02 08:05:27;;;;;;;9.25;1.90;;;12.00;99.90;;;;;;5028992;28;20049;-67
2022/11/02 08:07:57;;;;;;;12.07;2.05;;;12.00;99.90;;;;;;5031845;28;20037;-67
2022/11/02 08:10:24;;;;;;;10.73;2.28;;;12.00;99.90;;;;;;5030116;28;20048;-68
2022/11/02 08:12:49;;;;;;;12.30;2.17;;;12.00;99.90;;;;;;5032293;28;20398;-68
2022/11/02 08:15:15;;;;;;;8.07;1.90;;;12.10;99.90;;;;;;5030972;28;20041;-68
2022/11/02 08:17:40;;;;;;;7.55;1.77;;;12.10;99.90;;;;;;5023296;28;20037;-68
2022/11/02 08:20:06;;;;;;;12.57;2.25;;;12.10;99.90;;;;;;5029190;28;20037;-67
2022/11/02 08:22:36;;;;;;;9.25;1.50;;;12.10;99.90;;;;;;5031687;28;20033;-68
2022/11/02 08:25:02;;;;;;;11.77;1.70;;;12.10;99.90;;;;;;5030440;28;20041;-67
2022/11/02 08:27:28;;;;;;;8.52;1.55;;;12.20;99.90;;;;;;5030320;28;20037;-68
2022/11/02 08:29:54;;;;;;;9.63;2.05;;;12.20;99.90;;;;;;5030609;28;20068;-68
2022/11/02 08:32:19;;;;;;;8.93;1.65;;;12.40;99.90;;;;;;5030283;28;20037;-68
2022/11/02 08:34:45;;;;;;;13.00;1.80;;;12.40;99.90;;;;;;5031639;28;20506;-68
2022/11/02 08:37:11;;;;;;;9.30;1.73;;;12.50;99.90;;;;;;5027999;28;20042;-68
2022/11/02 08:39:36;;;;;;;7.53;1.52;;;12.40;99.90;;;;;;5028185;28;20060;-68
2022/11/02 08:42:02;;;;;;;8.20;1.50;;;12.40;99.90;;;;;;5029038;28;20036;-67
2022/11/02 08:44:27;;;;;;;9.13;1.92;;;12.40;99.90;;;;;;5030341;28;20040;-68
2022/11/02 08:46:54;;;;;;;10.40;1.55;;;12.40;99.90;;;;;;5025985;28;20041;-68
2022/11/02 08:49:20;;;;;;;8.93;1.88;;;12.40;99.90;;;;;;5030541;28;20084;-69
2022/11/02 08:51:46;;;;;;;10.35;1.63;;;12.50;99.90;;;;;;5028586;28;20511;-68
2022/11/02 08:54:12;;;;;;;9.10;2.25;;;12.60;99.90;;;;;;5031493;28;20511;-69
2022/11/02 08:56:37;;;;;;;7.18;1.67;;;12.60;99.90;;;;;;5028938;28;20411;-69
2022/11/02 08:59:03;;;;;;;9.07;1.58;;;12.60;99.90;;;;;;5034364;28;20037;-69
2022/11/02 09:01:29;;;;;;;9.13;1.65;;;12.80;99.90;;;;;;5027321;28;20033;-69
2022/11/02 09:03:54;;;;;;;7.45;1.08;;;12.80;99.90;;;;;;5027722;28;20133;-69
2022/11/02 09:06:20;;;;;;;10.80;1.95;;;12.70;99.90;;;;;;5028909;28;20052;-69
2022/11/02 09:08:45;;;;;;;11.13;1.63;;;12.70;99.90;;;;;;5026508;28;20077;-69
2022/11/02 09:11:11;;;;;;;7.03;1.60;;;12.70;99.90;;;;;;5031198;28;20124;-69
2022/11/02 09:13:37;;;;;;;7.60;1.50;;;12.70;99.90;;;;;;5027010;28;20406;-69
2022/11/02 09:16:03;;;;;;;7.90;1.50;;;12.70;99.90;;;;;;5034216;28;20570;-68
2022/11/02 09:18:29;;;;;;;5.93;1.05;;;12.70;99.90;;;;;;5027790;28;20103;-69
2022/11/02 09:20:55;;;;;;;10.82;1.65;;;12.80;99.90;;;;;;5030539;28;20486;-69
2022/11/02 09:23:21;;;;;;;7.75;1.58;;;12.80;99.90;;;;;;5030854;28;20116;-68
2022/11/02 09:25:48;;;;;;;6.88;1.58;;;12.80;99.90;;;;;;5031417;28;20045;-69
2022/11/02 09:28:14;;;;;;;6.88;1.60;;;13.00;99.90;;;;;;5028789;28;20442;-69
2022/11/02 09:30:40;;;;;;;9.05;1.77;;;12.90;99.90;;;;;;5028028;28;20041;-69
2022/11/02 09:33:06;;;;;;;11.20;1.67;;;13.00;99.90;;;;;;5029991;28;20045;-69
2022/11/02 09:35:37;;;;;;;9.85;1.77;;;13.00;99.90;;;;;;5027951;28;20082;-69
2022/11/02 09:38:03;;;;;;;9.65;1.75;;;13.00;99.90;;;;;;5031621;28;20505;-69
2022/11/02 09:40:51;;;;;;;10.60;1.50;;;13.10;99.90;;;;;;5026955;28;20157;-68
2022/11/02 09:43:46;;;;;;;7.40;1.73;;;13.20;99.90;;;;;;5020027;28;20049;-69
2022/11/02 09:46:23;;;;;;;6.95;1.77;;;13.40;99.90;;;;;;5021849;28;20045;-69
2022/11/02 09:48:54;;;;;;;8.27;1.38;;;13.50;99.90;;;;;;5021665;28;20618;-69
2022/11/02 09:51:27;;;;;;;13.55;1.85;;;13.50;99.90;;;;;;5029951;28;20155;-70
2022/11/02 09:54:39;;;;;;;6.07;1.25;;;13.50;99.90;;;;;;5030399;28;20041;-69
2022/11/02 09:57:10;;;;;;;8.90;2.03;;;13.50;99.90;;;;;;5022547;28;20559;-68
2022/11/02 09:59:36;;;;;;;10.68;1.73;;;13.50;99.90;;;;;;5029364;28;20091;-69
2022/11/02 10:02:09;;;;;;;8.63;1.55;;;13.50;99.90;;;;;;5027693;28;20034;-69
2022/11/02 10:05:05;;;;;;;5.75;1.42;;;13.50;99.90;;;;;;5029384;28;20080;-68
2022/11/02 10:08:07;;;;;;;10.73;2.30;;;13.50;99.90;;;;;;5023175;28;20037;-69
2022/11/02 10:10:48;;;;;;;11.80;1.42;;;13.60;99.90;;;;;;5030838;28;20041;-66
2022/11/02 10:13:32;;;;;;;;;;;13.70;99.90;;;;;;5031286;28;20121;-69
2022/11/02 10:16:35;;;;;;;8.05;1.60;;;13.80;99.90;;;;;;5033124;28;20000;-67
2022/11/02 10:19:02;;;;;;;6.10;1.40;;;13.90;99.90;;;;;;5031705;28;20052;-68
2022/11/02 10:21:33;;;;;;;9.73;1.58;;;13.90;99.90;;;;;;5030004;28;20569;-67
2022/11/02 10:24:10;;;;;;;7.87;1.53;;;13.90;99.90;;;;;;5033977;28;20030;-69
2022/11/02 10:26:38;;;;;;;7.35;1.58;;;13.90;99.90;;;;;;5024815;28;20487;-68
2022/11/02 10:29:11;;;;;;;7.53;1.42;;;13.90;99.90;;;;;;5018992;28;20087;-69
2022/11/02 10:31:36;;;;;;;13.98;2.83;;;13.90;99.90;;;;;;5029145;28;20029;-69
2022/11/02 10:34:28;;;;;;;8.00;1.38;;;14.00;99.90;;;;;;5033796;28;20125;-70
2022/11/02 10:36:53;;;;;;;8.43;1.35;;;13.90;99.90;;;;;;5013738;28;20069;-70
2022/11/02 10:39:24;;;;;;;9.32;1.67;;;14.00;99.90;;;;;;5017128;28;20068;-69
2022/11/02 10:42:07;;;;;;;10.02;1.70;;;13.80;99.90;;;;;;5037308;28;20065;-69
2022/11/02 10:44:54;;;;;;;8.05;1.70;;;13.80;99.90;;;;;;5030363;28;20073;-69
2022/11/02 10:47:38;;;;;;;10.77;1.63;;;13.70;99.90;;;;;;5030495;28;20046;-68
2022/11/02 10:50:27;;;;;;;10.05;1.70;;;13.80;99.90;;;;;;5033239;28;20444;-68
2022/11/02 10:52:52;;;;;;;10.85;1.70;;;13.70;99.90;;;;;;5032807;28;20037;-69
2022/11/02 10:55:26;;;;;;;9.40;1.33;;;13.70;99.90;;;;;;5029911;28;20124;-68
2022/11/02 10:57:55;;;;;;;8.98;1.65;;;13.60;99.90;;;;;;5026957;28;20029;-68
2022/11/02 11:00:29;;;;;;;10.30;1.42;;;13.60;99.90;;;;;;5032447;28;20041;-68
2022/11/02 11:03:21;;;;;;;8.15;1.77;;;13.60;99.90;;;;;;5030097;28;20045;-68
2022/11/02 11:05:49;;;;;;;8.50;1.50;;;13.70;99.90;;;;;;5025954;28;20049;-69
2022/11/02 11:08:41;;;;;;;7.22;1.10;;;13.70;99.90;;;;;;5031741;28;20507;-69
2022/11/02 11:11:13;;;;;;;12.32;1.55;;;13.80;99.90;;;;;;5028926;28;20038;-69
2022/11/02 11:13:41;;;;;;;8.55;1.55;;;13.80;99.90;;;;;;5030127;28;20037;-68
2022/11/02 11:16:08;;;;;;;12.88;1.98;;;13.90;99.90;;;;;;5030158;28;20509;-68
2022/11/02 11:18:34;;;;;;;7.93;1.30;;;14.00;99.90;;;;;;5032317;28;20033;-69
2022/11/02 11:21:00;;;;;;;10.40;1.52;;;14.20;99.90;;;;;;5032530;28;20033;-69
2022/11/02 11:23:26;;;;;;;7.28;1.45;;;14.30;99.90;;;;;;5032029;28;20131;-70
2022/11/02 11:26:10;;;;;;;6.80;1.45;;;14.40;99.90;;;;;;5030457;28;20124;-68
2022/11/02 11:28:50;;;;;;;6.50;1.02;;;14.50;99.90;;;;;;5024561;28;20041;-69
2022/11/02 11:31:16;;;;;;;7.85;1.27;;;14.50;99.90;;;;;;5029494;28;20052;-69
2022/11/02 11:33:49;;;;;;;12.23;1.65;;;14.50;99.90;;;;;;5027742;28;20045;-69
2022/11/02 11:36:33;;;;;;;7.38;1.70;;;14.60;99.90;;;;;;5032821;28;20510;-69
2022/11/02 11:39:21;;;;;;;6.75;1.20;;;14.50;99.90;;;;;;5028716;28;20045;-69
2022/11/02 11:41:47;;;;;;;9.10;1.30;;;14.50;99.90;;;;;;5026918;28;20037;-69
2022/11/02 11:44:14;;;;;;;7.60;1.40;;;14.50;99.90;;;;;;5029006;28;20446;-69
2022/11/02 11:46:46;;;;;;;9.93;1.35;;;14.50;99.90;;;;;;5027128;28;20042;-69
2022/11/02 11:49:43;;;;;;;5.03;1.17;;;14.40;99.90;;;;;;5017432;28;20045;-69
2022/11/02 11:52:26;;;;;;;8.23;1.17;;;14.30;99.90;;;;;;5032075;28;20084;-69
2022/11/02 11:54:56;;;;;;;6.68;1.63;;;14.30;99.90;;;;;;5026839;28;20079;-69
2022/11/02 11:57:27;;;;;;;5.22;1.42;;;14.30;99.90;;;;;;5032272;28;20044;-69
2022/11/02 11:59:54;;;;;;;6.45;1.50;;;14.40;99.90;;;;;;5032231;28;20498;-69
2022/11/02 12:02:32;;;;;;;10.00;1.73;;;14.30;99.90;;;;;;5031987;28;20127;-69
2022/11/02 12:05:11;;;;;;;6.82;1.55;;;14.20;99.90;;;;;;5030938;28;20398;-69
2022/11/02 12:07:58;;;;;;;9.98;1.42;;;14.20;99.90;;;;;;5023793;28;20073;-69
2022/11/02 12:10:36;;;;;;;9.40;1.30;;;14.20;99.90;;;;;;5030507;28;20057;-69
2022/11/02 12:13:32;;;;;;;8.60;2.33;;;14.20;99.90;;;;;;5031157;28;20446;-69
2022/11/02 12:16:14;;;;;;;10.38;1.40;;;14.30;99.90;;;;;;5027810;28;20470;-69
2022/11/02 12:19:07;;;;;;;8.07;1.15;;;14.30;99.90;;;;;;5031774;28;20029;-69
2022/11/02 12:21:47;;;;;;;9.40;1.45;;;14.30;99.90;;;;;;5015074;28;20095;-69
2022/11/02 12:24:51;;;;;;;7.47;1.23;;;14.20;99.90;;;;;;5029703;28;20549;-69
2022/11/02 12:27:22;;;;;;;4.95;1.63;;;14.20;99.90;;;;;;4998692;28;20132;-69
2022/11/02 12:30:16;;;;;;;5.22;1.20;;;14.30;99.90;;;;;;5029820;28;20481;-69
2022/11/02 12:33:05;;;;;;;5.93;1.27;;;14.40;99.90;;;;;;5010130;28;20045;-69
2022/11/02 12:35:56;;;;;;;6.47;1.17;;;14.50;99.90;;;;;;5022333;28;20164;-69
2022/11/02 12:38:33;;;;;;;;;;;14.60;99.90;;;;;;5031540;28;20045;-69
2022/11/02 12:41:11;;;;;;;7.63;1.10;;;14.60;99.90;;;;;;5030710;28;19971;-69
2022/11/02 12:43:43;;;;;;;4.88;1.17;;;14.70;99.90;;;;;;5030223;28;20041;-69
2022/11/02 12:46:21;;;;;;;7.10;1.27;;;14.70;99.90;;;;;;5031099;28;20037;-69
2022/11/02 12:49:17;;;;;;;6.47;1.30;;;14.80;99.90;;;;;;5018207;28;20042;-69
2022/11/02 12:52:01;;;;;;;5.38;1.33;;;14.80;99.90;;;;;;5009987;28;20041;-69
2022/11/02 12:54:46;;;;;;;7.15;1.40;;;14.90;99.90;;;;;;5015894;28;20049;-69
2022/11/02 12:57:14;;;;;;;8.45;1.77;;;14.70;99.90;;;;;;5022569;28;20096;-69
2022/11/02 12:59:42;;;;;;;6.10;1.40;;;14.60;99.90;;;;;;5006467;28;20069;-69
2022/11/02 13:02:20;;;;;;;10.95;1.80;;;14.40;99.90;;;;;;5004405;28;20037;-69
2022/11/02 13:04:51;;;;;;;12.02;1.75;;;14.30;99.90;;;;;;5003788;28;20037;-69
2022/11/02 13:07:24;;;;;;;;;;;14.20;99.90;;;;;;5009658;28;20128;-68
2022/11/02 13:10:14;;;;;;;5.57;1.40;;;14.20;99.90;;;;;;5025686;28;20285;-69
2022/11/02 13:12:42;;;;;;;9.82;1.73;;;14.20;99.90;;;;;;5006109;28;20046;-69
2022/11/02 13:15:14;;;;;;;6.78;1.60;;;14.30;99.90;;;;;;5003035;28;20064;-69
2022/11/02 13:17:44;;;;;;;6.70;1.25;;;14.40;99.90;;;;;;4998111;28;20030;-69
2022/11/02 13:20:25;;;;;;;5.70;1.25;;;14.60;99.90;;;;;;5003499;28;20026;-69
2022/11/02 13:23:06;;;;;;;8.38;1.30;;;14.70;99.90;;;;;;5011755;28;20088;-69
2022/11/02 13:25:43;;;;;;;6.93;1.48;;;14.70;99.90;;;;;;5011436;28;20288;-69